sensor_id;sensor_type;location;lat;lon;timestamp;temperature;humidity
19220;DHT22;9744;49.364;7.484;2023-05-07T00:00:57;18.00;99.90
19220;DHT22;9744;49.364;7.484;2023-05-07T00:03:25;18.10;99.90
19220;DHT22;9744;49.364;7.484;2023-05-07T00:05:53;17.90;99.90
19220;DHT22;9744;49.364;7.484;2023-05-07T00:08:20;17.90;99.90
19220;DHT22;9744;49.364;7.484;2023-05-07T00:10:47;18.00;99.90
19220;DHT22;9744;49.364;7.484;2023-05-07T00:13:15;18.10;99.90
19220;DHT22;9744;49.364;7.484;2023-05-07T00:15:42;18.00;99.90
19220;DHT22;9744;49.364;7.484;2023-05-07T00:18:11;17.70;99.90
19220;DHT22;9744;49.364;7.484;2023-05-07T00:20:38;17.50;99.90
19220;DHT22;9744;49.364;7.484;2023-05-07T00:23:05;17.50;99.90
19220;DHT22;9744;49.364;7.484;2023-05-07T00:25:33;17.50;99.90
19220;DHT22;9744;49.364;7.484;2023-05-07T00:28:00;17.60;99.90
19220;DHT22;9744;49.364;7.484;2023-05-07T00:30:29;17.60;99.90
19220;DHT22;9744;49.364;7.484;2023-05-07T00:32:56;17.60;99.90
19220;DHT22;9744;49.364;7.484;2023-05-07T00:35:25;17.70;99.90
19220;DHT22;9744;49.364;7.484;2023-05-07T00:37:54;17.70;99.90
19220;DHT22;9744;49.364;7.484;2023-05-07T00:40:22;17.80;99.90
19220;DHT22;9744;49.364;7.484;2023-05-07T00:42:49;17.70;99.90
19220;DHT22;9744;49.364;7.484;2023-05-07T00:45:16;17.70;99.90
19220;DHT22;9744;49.364;7.484;2023-05-07T00:47:44;17.70;99.90
19220;DHT22;9744;49.364;7.484;2023-05-07T00:50:11;17.70;99.90
19220;DHT22;9744;49.364;7.484;2023-05-07T00:52:41;17.70;99.90
19220;DHT22;9744;49.364;7.484;2023-05-07T00:55:09;17.80;99.90
19220;DHT22;9744;49.364;7.484;2023-05-07T00:57:37;17.70;99.90
19220;DHT22;9744;49.364;7.484;2023-05-07T01:00:06;17.70;99.90
19220;DHT22;9744;49.364;7.484;2023-05-07T01:02:34;17.80;99.90
19220;DHT22;9744;49.364;7.484;2023-05-07T01:05:03;17.80;99.90
19220;DHT22;9744;49.364;7.484;2023-05-07T01:07:32;17.80;99.90
19220;DHT22;9744;49.364;7.484;2023-05-07T01:10:02;17.80;99.90
19220;DHT22;9744;49.364;7.484;2023-05-07T01:12:30;17.80;99.90
19220;DHT22;9744;49.364;7.484;2023-05-07T01:14:58;17.80;99.90
19220;DHT22;9744;49.364;7.484;2023-05-07T01:17:25;17.80;99.90
19220;DHT22;9744;49.364;7.484;2023-05-07T01:19:53;17.80;99.90
19220;DHT22;9744;49.364;7.484;2023-05-07T01:22:30;17.80;99.90
19220;DHT22;9744;49.364;7.484;2023-05-07T01:24:58;17.80;99.90
19220;DHT22;9744;49.364;7.484;2023-05-07T01:27:28;17.80;99.90
19220;DHT22;9744;49.364;7.484;2023-05-07T01:29:55;17.80;99.90
19220;DHT22;9744;49.364;7.484;2023-05-07T01:32:28;17.80;99.90
19220;DHT22;9744;49.364;7.484;2023-05-07T01:34:57;17.70;99.90
19220;DHT22;9744;49.364;7.484;2023-05-07T01:37:26;17.70;99.90
19220;DHT22;9744;49.364;7.484;2023-05-07T01:39:58;17.70;99.90
19220;DHT22;9744;49.364;7.484;2023-05-07T01:42:27;17.60;99.90
19220;DHT22;9744;49.364;7.484;2023-05-07T01:44:55;17.60;99.90
19220;DHT22;9744;49.364;7.484;2023-05-07T01:47:23;17.60;99.90
19220;DHT22;9744;49.364;7.484;2023-05-07T01:49:51;17.60;99.90
19220;DHT22;9744;49.364;7.484;2023-05-07T01:52:19;17.60;99.90
19220;DHT22;9744;49.364;7.484;2023-05-07T01:54:47;17.60;99.90
19220;DHT22;9744;49.364;7.484;2023-05-07T01:57:15;17.50;99.90
19220;DHT22;9744;49.364;7.484;2023-05-07T01:59:43;17.60;99.90
19220;DHT22;9744;49.364;7.484;2023-05-07T02:02:11;17.50;99.90
19220;DHT22;9744;49.364;7.484;2023-05-07T02:04:41;17.50;99.90
19220;DHT22;9744;49.364;7.484;2023-05-07T02:07:08;17.50;99.90
19220;DHT22;9744;49.364;7.484;2023-05-07T02:09:38;17.50;99.90
19220;DHT22;9744;49.364;7.484;2023-05-07T02:12:05;17.50;99.90
19220;DHT22;9744;49.364;7.484;2023-05-07T02:14:34;17.50;99.90
19220;DHT22;9744;49.364;7.484;2023-05-07T02:17:01;17.40;99.90
19220;DHT22;9744;49.364;7.484;2023-05-07T02:19:28;17.40;99.90
19220;DHT22;9744;49.364;7.484;2023-05-07T02:21:56;17.40;99.90
19220;DHT22;9744;49.364;7.484;2023-05-07T02:24:23;17.40;99.90
19220;DHT22;9744;49.364;7.484;2023-05-07T02:26:51;17.30;99.90
19220;DHT22;9744;49.364;7.484;2023-05-07T02:29:18;17.30;99.90
19220;DHT22;9744;49.364;7.484;2023-05-07T02:31:47;17.30;99.90
19220;DHT22;9744;49.364;7.484;2023-05-07T02:34:16;17.30;99.90
19220;DHT22;9744;49.364;7.484;2023-05-07T02:36:44;17.30;99.90
19220;DHT22;9744;49.364;7.484;2023-05-07T02:39:14;17.30;99.90
19220;DHT22;9744;49.364;7.484;2023-05-07T02:41:41;17.30;99.90
19220;DHT22;9744;49.364;7.484;2023-05-07T02:44:09;17.20;99.90
19220;DHT22;9744;49.364;7.484;2023-05-07T02:46:37;17.20;99.90
19220;DHT22;9744;49.364;7.484;2023-05-07T02:49:09;17.10;99.90
19220;DHT22;9744;49.364;7.484;2023-05-07T02:51:37;17.10;99.90
19220;DHT22;9744;49.364;7.484;2023-05-07T02:54:09;17.10;99.90
19220;DHT22;9744;49.364;7.484;2023-05-07T02:56:37;17.00;99.90
19220;DHT22;9744;49.364;7.484;2023-05-07T02:59:05;16.90;99.90
19220;DHT22;9744;49.364;7.484;2023-05-07T03:01:37;16.80;99.90
19220;DHT22;9744;49.364;7.484;2023-05-07T03:04:06;16.80;99.90
19220;DHT22;9744;49.364;7.484;2023-05-07T03:06:35;16.70;99.90
19220;DHT22;9744;49.364;7.484;2023-05-07T03:09:02;16.60;99.90
19220;DHT22;9744;49.364;7.484;2023-05-07T03:11:30;16.60;99.90
19220;DHT22;9744;49.364;7.484;2023-05-07T03:13:57;16.60;99.90
19220;DHT22;9744;49.364;7.484;2023-05-07T03:16:26;16.50;99.90
19220;DHT22;9744;49.364;7.484;2023-05-07T03:18:53;16.30;99.90
19220;DHT22;9744;49.364;7.484;2023-05-07T03:21:21;16.30;99.90
19220;DHT22;9744;49.364;7.484;2023-05-07T03:23:49;16.40;99.90
19220;DHT22;9744;49.364;7.484;2023-05-07T03:26:17;16.40;99.90
19220;DHT22;9744;49.364;7.484;2023-05-07T03:28:44;16.40;99.90
19220;DHT22;9744;49.364;7.484;2023-05-07T03:31:14;16.40;99.90
19220;DHT22;9744;49.364;7.484;2023-05-07T03:33:50;16.30;99.90
19220;DHT22;9744;49.364;7.484;2023-05-07T03:36:19;16.30;99.90
19220;DHT22;9744;49.364;7.484;2023-05-07T03:38:48;16.40;99.90
19220;DHT22;9744;49.364;7.484;2023-05-07T03:41:19;16.30;99.90
19220;DHT22;9744;49.364;7.484;2023-05-07T03:43:48;16.30;99.90
19220;DHT22;9744;49.364;7.484;2023-05-07T03:46:15;16.30;99.90
19220;DHT22;9744;49.364;7.484;2023-05-07T03:48:42;16.20;99.90
19220;DHT22;9744;49.364;7.484;2023-05-07T03:51:12;16.20;99.90
19220;DHT22;9744;49.364;7.484;2023-05-07T03:53:40;16.10;99.90
19220;DHT22;9744;49.364;7.484;2023-05-07T03:56:09;16.00;99.90
19220;DHT22;9744;49.364;7.484;2023-05-07T03:58:39;15.90;99.90
19220;DHT22;9744;49.364;7.484;2023-05-07T04:01:09;15.90;99.90
19220;DHT22;9744;49.364;7.484;2023-05-07T04:03:36;15.90;99.90
19220;DHT22;9744;49.364;7.484;2023-05-07T04:06:04;15.90;99.90
19220;DHT22;9744;49.364;7.484;2023-05-07T04:08:34;15.70;99.90
19220;DHT22;9744;49.364;7.484;2023-05-07T04:11:02;15.70;99.90
19220;DHT22;9744;49.364;7.484;2023-05-07T04:13:33;15.70;99.90
19220;DHT22;9744;49.364;7.484;2023-05-07T04:16:03;15.70;99.90
19220;DHT22;9744;49.364;7.484;2023-05-07T04:18:33;15.70;99.90
19220;DHT22;9744;49.364;7.484;2023-05-07T04:21:00;15.50;99.90
19220;DHT22;9744;49.364;7.484;2023-05-07T04:23:28;15.60;99.90
19220;DHT22;9744;49.364;7.484;2023-05-07T04:25:58;15.60;99.90
19220;DHT22;9744;49.364;7.484;2023-05-07T04:28:34;15.60;99.90
19220;DHT22;9744;49.364;7.484;2023-05-07T04:31:01;15.50;99.90
19220;DHT22;9744;49.364;7.484;2023-05-07T04:33:30;15.60;99.90
19220;DHT22;9744;49.364;7.484;2023-05-07T04:36:00;15.50;99.90
19220;DHT22;9744;49.364;7.484;2023-05-07T04:38:34;15.50;99.90
19220;DHT22;9744;49.364;7.484;2023-05-07T04:41:04;15.60;99.90
19220;DHT22;9744;49.364;7.484;2023-05-07T04:43:35;15.60;99.90
19220;DHT22;9744;49.364;7.484;2023-05-07T04:46:02;15.60;99.90
19220;DHT22;9744;49.364;7.484;2023-05-07T04:48:31;15.70;99.90
19220;DHT22;9744;49.364;7.484;2023-05-07T04:50:59;15.70;99.90
19220;DHT22;9744;49.364;7.484;2023-05-07T04:53:27;15.70;99.90
19220;DHT22;9744;49.364;7.484;2023-05-07T04:55:56;15.70;99.90
19220;DHT22;9744;49.364;7.484;2023-05-07T04:58:24;15.80;99.90
19220;DHT22;9744;49.364;7.484;2023-05-07T05:00:53;15.80;99.90
19220;DHT22;9744;49.364;7.484;2023-05-07T05:03:22;15.80;99.90
19220;DHT22;9744;49.364;7.484;2023-05-07T05:05:50;15.80;99.90
19220;DHT22;9744;49.364;7.484;2023-05-07T05:08:19;16.00;99.90
19220;DHT22;9744;49.364;7.484;2023-05-07T05:10:46;16.00;99.90
19220;DHT22;9744;49.364;7.484;2023-05-07T05:13:15;15.90;99.90
19220;DHT22;9744;49.364;7.484;2023-05-07T05:15:43;15.80;99.90
19220;DHT22;9744;49.364;7.484;2023-05-07T05:18:12;15.80;99.90
19220;DHT22;9744;49.364;7.484;2023-05-07T05:20:40;15.70;99.90
19220;DHT22;9744;49.364;7.484;2023-05-07T05:23:08;15.60;99.90
19220;DHT22;9744;49.364;7.484;2023-05-07T05:25:36;15.60;99.90
19220;DHT22;9744;49.364;7.484;2023-05-07T05:28:05;15.70;99.90
19220;DHT22;9744;49.364;7.484;2023-05-07T05:30:33;15.80;99.90
19220;DHT22;9744;49.364;7.484;2023-05-07T05:33:01;15.80;99.90
19220;DHT22;9744;49.364;7.484;2023-05-07T05:35:31;15.90;99.90
19220;DHT22;9744;49.364;7.484;2023-05-07T05:38:02;16.00;99.90
19220;DHT22;9744;49.364;7.484;2023-05-07T05:40:29;16.10;99.90
19220;DHT22;9744;49.364;7.484;2023-05-07T05:42:57;16.20;99.90
19220;DHT22;9744;49.364;7.484;2023-05-07T05:45:24;16.30;99.90
19220;DHT22;9744;49.364;7.484;2023-05-07T05:47:52;16.40;99.90
19220;DHT22;9744;49.364;7.484;2023-05-07T05:50:19;16.50;99.90
19220;DHT22;9744;49.364;7.484;2023-05-07T05:52:49;16.50;99.90
19220;DHT22;9744;49.364;7.484;2023-05-07T05:55:18;16.50;99.90
19220;DHT22;9744;49.364;7.484;2023-05-07T05:57:45;16.60;99.90
19220;DHT22;9744;49.364;7.484;2023-05-07T06:00:14;16.70;99.90
19220;DHT22;9744;49.364;7.484;2023-05-07T06:02:44;16.70;99.90
19220;DHT22;9744;49.364;7.484;2023-05-07T06:05:17;16.70;99.90
19220;DHT22;9744;49.364;7.484;2023-05-07T06:07:45;16.80;99.90
19220;DHT22;9744;49.364;7.484;2023-05-07T06:10:14;16.80;99.90
19220;DHT22;9744;49.364;7.484;2023-05-07T06:12:41;16.80;99.90
19220;DHT22;9744;49.364;7.484;2023-05-07T06:15:10;16.90;99.90
19220;DHT22;9744;49.364;7.484;2023-05-07T06:17:38;16.90;99.90
19220;DHT22;9744;49.364;7.484;2023-05-07T06:20:07;17.00;99.90
19220;DHT22;9744;49.364;7.484;2023-05-07T06:22:34;17.00;99.90
19220;DHT22;9744;49.364;7.484;2023-05-07T06:25:02;17.00;99.90
19220;DHT22;9744;49.364;7.484;2023-05-07T06:27:31;17.10;99.90
19220;DHT22;9744;49.364;7.484;2023-05-07T06:29:58;17.10;99.90
19220;DHT22;9744;49.364;7.484;2023-05-07T06:32:26;17.20;99.90
19220;DHT22;9744;49.364;7.484;2023-05-07T06:34:53;17.20;99.90
19220;DHT22;9744;49.364;7.484;2023-05-07T06:37:21;17.30;99.90
19220;DHT22;9744;49.364;7.484;2023-05-07T06:40:03;17.30;99.90
19220;DHT22;9744;49.364;7.484;2023-05-07T06:42:35;17.30;99.90
19220;DHT22;9744;49.364;7.484;2023-05-07T06:45:21;17.40;99.90
19220;DHT22;9744;49.364;7.484;2023-05-07T06:47:48;17.50;99.90
19220;DHT22;9744;49.364;7.484;2023-05-07T06:50:16;17.50;99.90
19220;DHT22;9744;49.364;7.484;2023-05-07T06:52:46;17.70;99.90
19220;DHT22;9744;49.364;7.484;2023-05-07T06:55:13;17.80;99.90
19220;DHT22;9744;49.364;7.484;2023-05-07T06:57:43;17.80;99.90
19220;DHT22;9744;49.364;7.484;2023-05-07T07:00:11;17.90;99.90
19220;DHT22;9744;49.364;7.484;2023-05-07T07:02:47;18.00;99.90
19220;DHT22;9744;49.364;7.484;2023-05-07T07:05:18;18.00;99.90
19220;DHT22;9744;49.364;7.484;2023-05-07T07:07:45;18.10;99.90
19220;DHT22;9744;49.364;7.484;2023-05-07T07:10:18;18.20;99.90
19220;DHT22;9744;49.364;7.484;2023-05-07T07:12:49;18.20;99.90
19220;DHT22;9744;49.364;7.484;2023-05-07T07:15:16;18.40;99.90
19220;DHT22;9744;49.364;7.484;2023-05-07T07:17:44;18.40;99.90
19220;DHT22;9744;49.364;7.484;2023-05-07T07:20:12;18.50;99.90
19220;DHT22;9744;49.364;7.484;2023-05-07T07:22:40;18.60;99.90
19220;DHT22;9744;49.364;7.484;2023-05-07T07:25:08;18.70;99.90
19220;DHT22;9744;49.364;7.484;2023-05-07T07:27:37;18.80;99.90
19220;DHT22;9744;49.364;7.484;2023-05-07T07:30:08;18.90;99.90
19220;DHT22;9744;49.364;7.484;2023-05-07T07:32:37;19.00;99.90
19220;DHT22;9744;49.364;7.484;2023-05-07T07:35:06;19.00;99.90
19220;DHT22;9744;49.364;7.484;2023-05-07T07:37:34;19.00;99.90
19220;DHT22;9744;49.364;7.484;2023-05-07T07:40:02;19.00;99.90
19220;DHT22;9744;49.364;7.484;2023-05-07T07:42:31;19.10;99.90
19220;DHT22;9744;49.364;7.484;2023-05-07T07:44:58;19.10;99.90
19220;DHT22;9744;49.364;7.484;2023-05-07T07:47:31;19.10;99.90
19220;DHT22;9744;49.364;7.484;2023-05-07T07:49:58;19.20;99.90
19220;DHT22;9744;49.364;7.484;2023-05-07T07:52:25;19.20;99.90
19220;DHT22;9744;49.364;7.484;2023-05-07T07:54:52;19.20;99.90
19220;DHT22;9744;49.364;7.484;2023-05-07T07:57:21;19.30;99.90
19220;DHT22;9744;49.364;7.484;2023-05-07T07:59:49;19.30;99.90
19220;DHT22;9744;49.364;7.484;2023-05-07T08:02:16;19.40;99.90
19220;DHT22;9744;49.364;7.484;2023-05-07T08:04:46;19.40;99.90
19220;DHT22;9744;49.364;7.484;2023-05-07T08:07:13;19.50;99.90
19220;DHT22;9744;49.364;7.484;2023-05-07T08:09:44;19.50;99.90
19220;DHT22;9744;49.364;7.484;2023-05-07T08:12:12;19.60;99.90
19220;DHT22;9744;49.364;7.484;2023-05-07T08:14:39;19.60;99.90
19220;DHT22;9744;49.364;7.484;2023-05-07T08:17:07;19.70;99.90
19220;DHT22;9744;49.364;7.484;2023-05-07T08:19:35;19.70;99.90
19220;DHT22;9744;49.364;7.484;2023-05-07T08:22:06;19.80;99.90
19220;DHT22;9744;49.364;7.484;2023-05-07T08:24:34;19.80;99.90
19220;DHT22;9744;49.364;7.484;2023-05-07T08:27:01;19.80;99.90
19220;DHT22;9744;49.364;7.484;2023-05-07T08:29:28;19.90;99.90
19220;DHT22;9744;49.364;7.484;2023-05-07T08:31:56;19.90;99.90
19220;DHT22;9744;49.364;7.484;2023-05-07T08:34:24;20.00;99.90
19220;DHT22;9744;49.364;7.484;2023-05-07T08:36:53;20.00;99.90
19220;DHT22;9744;49.364;7.484;2023-05-07T08:39:25;20.10;99.90
19220;DHT22;9744;49.364;7.484;2023-05-07T08:41:55;20.20;99.90
19220;DHT22;9744;49.364;7.484;2023-05-07T08:44:26;20.30;99.90
19220;DHT22;9744;49.364;7.484;2023-05-07T08:46:56;20.40;99.90
19220;DHT22;9744;49.364;7.484;2023-05-07T08:49:24;20.50;99.90
19220;DHT22;9744;49.364;7.484;2023-05-07T08:51:52;20.60;99.90
19220;DHT22;9744;49.364;7.484;2023-05-07T08:54:20;20.80;99.90
19220;DHT22;9744;49.364;7.484;2023-05-07T08:56:49;20.90;99.90
19220;DHT22;9744;49.364;7.484;2023-05-07T08:59:18;21.00;99.90
19220;DHT22;9744;49.364;7.484;2023-05-07T09:01:45;21.20;99.90
19220;DHT22;9744;49.364;7.484;2023-05-07T09:04:13;21.40;99.90
19220;DHT22;9744;49.364;7.484;2023-05-07T09:06:41;21.60;99.90
19220;DHT22;9744;49.364;7.484;2023-05-07T09:09:14;21.80;99.90
19220;DHT22;9744;49.364;7.484;2023-05-07T09:11:44;22.10;99.90
19220;DHT22;9744;49.364;7.484;2023-05-07T09:14:14;22.30;99.90
19220;DHT22;9744;49.364;7.484;2023-05-07T09:16:46;22.60;99.90
19220;DHT22;9744;49.364;7.484;2023-05-07T09:19:13;22.90;99.90
19220;DHT22;9744;49.364;7.484;2023-05-07T09:21:44;23.10;99.90
19220;DHT22;9744;49.364;7.484;2023-05-07T09:24:15;23.30;99.90
19220;DHT22;9744;49.364;7.484;2023-05-07T09:26:43;23.40;99.90
19220;DHT22;9744;49.364;7.484;2023-05-07T09:29:11;23.40;99.90
19220;DHT22;9744;49.364;7.484;2023-05-07T09:31:40;23.40;99.90
19220;DHT22;9744;49.364;7.484;2023-05-07T09:34:11;23.50;99.90
19220;DHT22;9744;49.364;7.484;2023-05-07T09:36:40;23.60;99.90
19220;DHT22;9744;49.364;7.484;2023-05-07T09:39:08;23.60;99.90
19220;DHT22;9744;49.364;7.484;2023-05-07T09:41:43;23.80;99.90
19220;DHT22;9744;49.364;7.484;2023-05-07T09:44:15;23.90;99.90
19220;DHT22;9744;49.364;7.484;2023-05-07T09:46:53;24.00;99.90
19220;DHT22;9744;49.364;7.484;2023-05-07T09:49:29;24.10;99.90
19220;DHT22;9744;49.364;7.484;2023-05-07T09:52:04;24.20;99.90
19220;DHT22;9744;49.364;7.484;2023-05-07T09:54:35;24.40;99.90
19220;DHT22;9744;49.364;7.484;2023-05-07T09:57:04;24.60;99.90
19220;DHT22;9744;49.364;7.484;2023-05-07T09:59:34;24.90;99.90
19220;DHT22;9744;49.364;7.484;2023-05-07T10:02:10;25.20;99.90
19220;DHT22;9744;49.364;7.484;2023-05-07T10:04:45;25.50;99.90
19220;DHT22;9744;49.364;7.484;2023-05-07T10:07:16;25.80;99.90
19220;DHT22;9744;49.364;7.484;2023-05-07T10:09:44;26.10;99.90
19220;DHT22;9744;49.364;7.484;2023-05-07T10:12:22;26.60;99.90
19220;DHT22;9744;49.364;7.484;2023-05-07T10:14:50;27.00;99.90
19220;DHT22;9744;49.364;7.484;2023-05-07T10:17:23;27.30;99.90
19220;DHT22;9744;49.364;7.484;2023-05-07T10:19:53;27.50;99.90
19220;DHT22;9744;49.364;7.484;2023-05-07T10:22:24;27.70;99.90
19220;DHT22;9744;49.364;7.484;2023-05-07T10:24:53;28.00;99.90
19220;DHT22;9744;49.364;7.484;2023-05-07T10:27:24;28.30;99.90
19220;DHT22;9744;49.364;7.484;2023-05-07T10:30:02;28.60;99.90
19220;DHT22;9744;49.364;7.484;2023-05-07T10:32:40;28.90;99.90
19220;DHT22;9744;49.364;7.484;2023-05-07T10:35:17;29.10;99.90
19220;DHT22;9744;49.364;7.484;2023-05-07T10:37:48;29.20;99.90
19220;DHT22;9744;49.364;7.484;2023-05-07T10:40:17;29.20;99.90
19220;DHT22;9744;49.364;7.484;2023-05-07T10:42:56;29.20;99.90
19220;DHT22;9744;49.364;7.484;2023-05-07T10:45:26;29.20;99.90
19220;DHT22;9744;49.364;7.484;2023-05-07T10:48:13;29.30;99.90
19220;DHT22;9744;49.364;7.484;2023-05-07T10:50:44;29.30;99.90
19220;DHT22;9744;49.364;7.484;2023-05-07T10:53:23;29.40;99.90
19220;DHT22;9744;49.364;7.484;2023-05-07T10:56:32;29.60;99.90
19220;DHT22;9744;49.364;7.484;2023-05-07T10:59:31;29.80;99.90
19220;DHT22;9744;49.364;7.484;2023-05-07T11:02:11;29.90;99.90
19220;DHT22;9744;49.364;7.484;2023-05-07T11:05:28;30.00;99.90
19220;DHT22;9744;49.364;7.484;2023-05-07T11:08:07;30.20;99.90
19220;DHT22;9744;49.364;7.484;2023-05-07T11:10:50;30.40;99.90
19220;DHT22;9744;49.364;7.484;2023-05-07T11:13:43;30.50;99.90
19220;DHT22;9744;49.364;7.484;2023-05-07T11:16:18;30.70;99.90
19220;DHT22;9744;49.364;7.484;2023-05-07T11:18:49;30.80;99.90
19220;DHT22;9744;49.364;7.484;2023-05-07T11:21:37;30.90;99.90
19220;DHT22;9744;49.364;7.484;2023-05-07T11:24:14;31.00;99.90
19220;DHT22;9744;49.364;7.484;2023-05-07T11:26:53;31.00;99.90
19220;DHT22;9744;49.364;7.484;2023-05-07T11:29:23;31.10;99.90
19220;DHT22;9744;49.364;7.484;2023-05-07T11:31:56;31.20;99.90
19220;DHT22;9744;49.364;7.484;2023-05-07T11:34:30;31.20;99.90
19220;DHT22;9744;49.364;7.484;2023-05-07T11:37:04;31.20;99.90
19220;DHT22;9744;49.364;7.484;2023-05-07T11:40:05;31.10;99.90
19220;DHT22;9744;49.364;7.484;2023-05-07T11:42:34;31.00;99.90
19220;DHT22;9744;49.364;7.484;2023-05-07T11:45:03;30.90;99.90
19220;DHT22;9744;49.364;7.484;2023-05-07T11:47:32;30.90;99.90
19220;DHT22;9744;49.364;7.484;2023-05-07T11:50:03;30.80;99.90
19220;DHT22;9744;49.364;7.484;2023-05-07T11:52:33;30.70;99.90
19220;DHT22;9744;49.364;7.484;2023-05-07T11:55:02;30.60;99.90
19220;DHT22;9744;49.364;7.484;2023-05-07T11:57:32;30.50;99.90
19220;DHT22;9744;49.364;7.484;2023-05-07T12:00:00;30.50;99.90
19220;DHT22;9744;49.364;7.484;2023-05-07T12:02:38;30.40;99.90
19220;DHT22;9744;49.364;7.484;2023-05-07T12:05:06;30.40;99.90
19220;DHT22;9744;49.364;7.484;2023-05-07T12:07:35;30.30;99.90
19220;DHT22;9744;49.364;7.484;2023-05-07T12:10:04;30.30;99.90
19220;DHT22;9744;49.364;7.484;2023-05-07T12:12:38;30.40;99.90
19220;DHT22;9744;49.364;7.484;2023-05-07T12:15:06;30.60;99.90
19220;DHT22;9744;49.364;7.484;2023-05-07T12:17:34;30.60;99.90
19220;DHT22;9744;49.364;7.484;2023-05-07T12:20:02;30.80;99.90
19220;DHT22;9744;49.364;7.484;2023-05-07T12:22:30;30.80;99.90
19220;DHT22;9744;49.364;7.484;2023-05-07T12:24:59;30.90;99.90
19220;DHT22;9744;49.364;7.484;2023-05-07T12:27:26;31.10;99.90
19220;DHT22;9744;49.364;7.484;2023-05-07T12:29:54;31.20;99.90
19220;DHT22;9744;49.364;7.484;2023-05-07T12:32:21;31.20;99.90
19220;DHT22;9744;49.364;7.484;2023-05-07T12:34:50;31.30;99.90
19220;DHT22;9744;49.364;7.484;2023-05-07T12:37:23;31.30;99.90
19220;DHT22;9744;49.364;7.484;2023-05-07T12:40:05;31.30;99.90
19220;DHT22;9744;49.364;7.484;2023-05-07T12:42:35;31.20;99.90
19220;DHT22;9744;49.364;7.484;2023-05-07T12:45:08;31.10;99.90
19220;DHT22;9744;49.364;7.484;2023-05-07T12:47:35;31.00;99.90
19220;DHT22;9744;49.364;7.484;2023-05-07T12:50:06;30.90;99.90
19220;DHT22;9744;49.364;7.484;2023-05-07T12:52:33;30.90;99.90
19220;DHT22;9744;49.364;7.484;2023-05-07T12:55:07;30.80;99.90
19220;DHT22;9744;49.364;7.484;2023-05-07T12:57:38;30.60;99.90
19220;DHT22;9744;49.364;7.484;2023-05-07T13:00:07;30.30;99.90
19220;DHT22;9744;49.364;7.484;2023-05-07T13:02:38;30.00;99.90
19220;DHT22;9744;49.364;7.484;2023-05-07T13:05:06;29.70;99.90
19220;DHT22;9744;49.364;7.484;2023-05-07T13:07:34;29.40;99.90
19220;DHT22;9744;49.364;7.484;2023-05-07T13:10:02;29.10;99.90
19220;DHT22;9744;49.364;7.484;2023-05-07T13:12:31;28.80;99.90
19220;DHT22;9744;49.364;7.484;2023-05-07T13:14:59;28.50;99.90
19220;DHT22;9744;49.364;7.484;2023-05-07T13:17:26;28.30;99.90
19220;DHT22;9744;49.364;7.484;2023-05-07T13:19:53;28.10;99.90
19220;DHT22;9744;49.364;7.484;2023-05-07T13:22:20;27.90;99.90
19220;DHT22;9744;49.364;7.484;2023-05-07T13:24:48;27.70;99.90
19220;DHT22;9744;49.364;7.484;2023-05-07T13:27:15;27.40;99.90
19220;DHT22;9744;49.364;7.484;2023-05-07T13:29:44;27.00;99.90
19220;DHT22;9744;49.364;7.484;2023-05-07T13:32:11;26.70;99.90
19220;DHT22;9744;49.364;7.484;2023-05-07T13:34:38;26.10;99.90
19220;DHT22;9744;49.364;7.484;2023-05-07T13:37:06;25.50;99.90
19220;DHT22;9744;49.364;7.484;2023-05-07T13:39:34;24.70;99.90
19220;DHT22;9744;49.364;7.484;2023-05-07T13:42:01;24.30;99.90
19220;DHT22;9744;49.364;7.484;2023-05-07T13:44:28;24.10;99.90
19220;DHT22;9744;49.364;7.484;2023-05-07T13:46:57;23.60;99.90
19220;DHT22;9744;49.364;7.484;2023-05-07T13:49:25;23.20;99.90
19220;DHT22;9744;49.364;7.484;2023-05-07T13:51:52;22.80;99.90
19220;DHT22;9744;49.364;7.484;2023-05-07T13:54:19;22.50;99.90
19220;DHT22;9744;49.364;7.484;2023-05-07T13:56:46;22.20;99.90
19220;DHT22;9744;49.364;7.484;2023-05-07T13:59:14;21.80;99.90
19220;DHT22;9744;49.364;7.484;2023-05-07T14:01:42;21.10;99.90
19220;DHT22;9744;49.364;7.484;2023-05-07T14:04:10;20.60;99.90
19220;DHT22;9744;49.364;7.484;2023-05-07T14:06:37;20.20;99.90
19220;DHT22;9744;49.364;7.484;2023-05-07T14:09:05;20.00;99.90
19220;DHT22;9744;49.364;7.484;2023-05-07T14:11:32;19.80;99.90
19220;DHT22;9744;49.364;7.484;2023-05-07T14:14:00;19.80;99.90
19220;DHT22;9744;49.364;7.484;2023-05-07T14:16:27;19.80;99.90
19220;DHT22;9744;49.364;7.484;2023-05-07T14:18:54;19.80;99.90
19220;DHT22;9744;49.364;7.484;2023-05-07T14:21:23;19.80;99.90
19220;DHT22;9744;49.364;7.484;2023-05-07T14:23:51;19.90;99.90
19220;DHT22;9744;49.364;7.484;2023-05-07T14:26:20;20.00;99.90
19220;DHT22;9744;49.364;7.484;2023-05-07T14:28:48;20.00;99.90
19220;DHT22;9744;49.364;7.484;2023-05-07T14:31:16;20.20;99.90
19220;DHT22;9744;49.364;7.484;2023-05-07T14:33:43;20.30;99.90
19220;DHT22;9744;49.364;7.484;2023-05-07T14:36:11;20.40;99.90
19220;DHT22;9744;49.364;7.484;2023-05-07T14:38:39;20.40;99.90
19220;DHT22;9744;49.364;7.484;2023-05-07T14:41:07;20.30;99.90
19220;DHT22;9744;49.364;7.484;2023-05-07T14:43:34;20.30;99.90
19220;DHT22;9744;49.364;7.484;2023-05-07T14:46:01;20.30;99.90
19220;DHT22;9744;49.364;7.484;2023-05-07T14:48:29;20.20;99.90
19220;DHT22;9744;49.364;7.484;2023-05-07T14:50:56;20.20;99.90
19220;DHT22;9744;49.364;7.484;2023-05-07T14:53:23;20.20;99.90
19220;DHT22;9744;49.364;7.484;2023-05-07T14:55:52;20.20;99.90
19220;DHT22;9744;49.364;7.484;2023-05-07T14:58:21;20.10;99.90
19220;DHT22;9744;49.364;7.484;2023-05-07T15:00:48;20.10;99.90
19220;DHT22;9744;49.364;7.484;2023-05-07T15:03:15;20.00;99.90
19220;DHT22;9744;49.364;7.484;2023-05-07T15:05:44;19.90;99.90
19220;DHT22;9744;49.364;7.484;2023-05-07T15:08:12;19.80;99.90
19220;DHT22;9744;49.364;7.484;2023-05-07T15:10:39;19.90;99.90
19220;DHT22;9744;49.364;7.484;2023-05-07T15:13:09;20.00;99.90
19220;DHT22;9744;49.364;7.484;2023-05-07T15:15:38;20.00;99.90
19220;DHT22;9744;49.364;7.484;2023-05-07T15:18:06;20.00;99.90
19220;DHT22;9744;49.364;7.484;2023-05-07T15:20:33;19.90;99.90
19220;DHT22;9744;49.364;7.484;2023-05-07T15:23:01;19.80;99.90
19220;DHT22;9744;49.364;7.484;2023-05-07T15:25:28;19.80;99.90
19220;DHT22;9744;49.364;7.484;2023-05-07T15:27:57;19.80;99.90
19220;DHT22;9744;49.364;7.484;2023-05-07T15:30:25;19.80;99.90
19220;DHT22;9744;49.364;7.484;2023-05-07T15:32:53;19.80;99.90
19220;DHT22;9744;49.364;7.484;2023-05-07T15:35:24;19.90;99.90
19220;DHT22;9744;49.364;7.484;2023-05-07T15:37:52;19.90;99.90
19220;DHT22;9744;49.364;7.484;2023-05-07T15:40:19;20.00;99.90
19220;DHT22;9744;49.364;7.484;2023-05-07T15:42:46;20.10;99.90
19220;DHT22;9744;49.364;7.484;2023-05-07T15:45:14;20.10;99.90
19220;DHT22;9744;49.364;7.484;2023-05-07T15:47:43;20.10;99.90
19220;DHT22;9744;49.364;7.484;2023-05-07T15:50:10;19.90;99.90
19220;DHT22;9744;49.364;7.484;2023-05-07T15:52:38;19.70;99.90
19220;DHT22;9744;49.364;7.484;2023-05-07T15:55:08;19.60;99.90
19220;DHT22;9744;49.364;7.484;2023-05-07T15:57:35;19.40;99.90
19220;DHT22;9744;49.364;7.484;2023-05-07T16:00:03;19.40;99.90